createdAt,value
2023-02-17T00:14:23.498Z,94531.84
2023-02-17T00:29:25.082Z,94523.38
2023-02-17T00:44:26.706Z,94486.75
2023-02-17T00:59:28.233Z,94475.25
2023-02-17T01:14:29.687Z,94490.13
2023-02-17T01:29:31.196Z,94477.88
2023-02-17T01:44:33.057Z,94461.09
2023-02-17T01:59:34.533Z,94466.44
2023-02-17T02:14:36.057Z,94455.72
2023-02-17T02:29:53.067Z,94461.03
2023-02-17T02:44:54.640Z,94453.88
2023-02-17T03:00:14.921Z,94459.56
2023-02-17T03:15:21.862Z,94460.69
2023-02-17T03:30:23.427Z,94445.50
2023-02-17T03:45:25.011Z,94442.00
2023-02-17T04:00:26.612Z,94459.53
2023-02-17T04:15:29.982Z,94453.09
2023-02-17T04:30:31.991Z,94451.91
2023-02-17T04:45:33.928Z,94458.75
2023-02-17T05:00:35.786Z,94466.03
2023-02-17T05:15:37.399Z,94469.38
2023-02-17T05:30:38.967Z,94501.94
2023-02-17T05:45:40.488Z,94492.00
2023-02-17T06:00:42.151Z,94523.56
2023-02-17T06:15:43.702Z,94527.50
2023-02-17T06:30:45.285Z,94499.16
2023-02-17T06:45:46.858Z,94536.28
2023-02-17T07:00:48.367Z,94544.59
2023-02-17T07:15:49.880Z,94546.88
2023-02-17T07:30:51.362Z,94555.41
2023-02-17T07:45:54.678Z,94570.22
2023-02-17T08:00:56.261Z,94549.91
2023-02-17T08:15:58.003Z,94568.81
2023-02-17T08:31:24.110Z,94563.72
2023-02-17T08:46:25.889Z,94553.56
2023-02-17T09:01:27.682Z,94564.25
2023-02-17T09:32:35.999Z,94558.22
2023-02-17T09:47:52.756Z,94545.53
2023-02-17T10:03:11.402Z,94546.81
2023-02-17T10:18:20.233Z,94523.59
2023-02-17T10:33:35.858Z,94502.63
2023-02-17T10:48:38.521Z,94481.63
2023-02-17T11:03:41.190Z,94459.03
2023-02-17T11:18:46.602Z,94474.44
2023-02-17T11:33:48.186Z,94461.41
2023-02-17T11:48:58.733Z,94450.69
2023-02-17T12:04:19.091Z,94430.66
2023-02-17T12:19:29.679Z,94412.31
2023-02-17T12:34:37.170Z,94381.22
2023-02-17T12:49:47.889Z,94371.16
2023-02-17T13:04:54.340Z,94347.34
2023-02-17T13:20:07.147Z,94365.56
2023-02-17T13:35:14.682Z,94353.84
2023-02-17T13:50:31.298Z,94373.31
2023-02-17T14:05:33.218Z,94374.44
2023-02-17T14:20:36.195Z,94374.41
2023-02-17T14:35:39.517Z,94377.09
2023-02-17T14:50:44.794Z,94387.41
2023-02-17T15:05:46.538Z,94376.69
2023-02-17T15:20:52.334Z,94380.16
2023-02-17T15:35:54.606Z,94379.34
2023-02-17T16:07:05.773Z,94430.19
2023-02-17T16:22:07.239Z,94458.41
2023-02-17T16:53:15.517Z,94452.63
2023-02-17T17:08:18.274Z,94455.69
2023-02-17T17:23:21.073Z,94453.00
2023-02-17T18:11:03.853Z,94430.81
2023-02-17T18:26:05.938Z,94426.22
2023-02-17T18:41:07.754Z,94414.00
2023-02-17T18:56:13.222Z,94414.38
2023-02-17T19:11:15.280Z,94444.16
2023-02-17T19:26:17.457Z,94443.72
2023-02-17T19:41:21.884Z,94454.41
2023-02-17T19:56:24.428Z,94454.44
2023-02-17T20:11:26.184Z,94434.59
2023-02-17T20:26:29.089Z,94425.41
2023-02-17T20:41:30.604Z,94436.88
2023-02-17T20:56:34.346Z,94448.31
2023-02-17T21:11:35.847Z,94442.56
2023-02-17T21:26:37.410Z,94435.69
2023-02-17T21:41:42.440Z,94421.56
2023-02-17T21:56:44.701Z,94418.47
2023-02-17T22:11:46.664Z,94295.28
2023-02-17T22:26:48.504Z,94427.25
2023-02-17T22:41:50.103Z,94415.00
2023-02-17T22:56:51.545Z,94391.72
2023-02-17T23:11:58.319Z,94419.97
2023-02-17T23:27:00.802Z,94398.19
2023-02-17T23:42:02.281Z,94393.22
2023-02-17T23:57:04.008Z,94368.41
